sensor_id;sensor_type;location;lat;lon;timestamp;pressure;altitude;pressure_sealevel;temperature;humidity
58955;BME280;45815;52.334;5.024;2023-04-07T00:01:18;101519.25;;;8.69;100.00
58955;BME280;45815;52.334;5.024;2023-04-07T00:03:44;101520.16;;;8.71;100.00
58955;BME280;45815;52.334;5.024;2023-04-07T00:06:09;101520.94;;;8.68;100.00
58955;BME280;45815;52.334;5.024;2023-04-07T00:08:35;101515.44;;;8.60;100.00
58955;BME280;45815;52.334;5.024;2023-04-07T00:11:00;101516.44;;;8.64;100.00
58955;BME280;45815;52.334;5.024;2023-04-07T00:13:26;101512.13;;;8.66;100.00
58955;BME280;45815;52.334;5.024;2023-04-07T00:15:51;101514.72;;;8.64;100.00
58955;BME280;45815;52.334;5.024;2023-04-07T00:18:16;101511.50;;;8.72;100.00
58955;BME280;45815;52.334;5.024;2023-04-07T00:20:42;101522.00;;;8.73;100.00
58955;BME280;45815;52.334;5.024;2023-04-07T00:23:07;101524.78;;;8.78;100.00
58955;BME280;45815;52.334;5.024;2023-04-07T00:25:33;101524.84;;;8.79;100.00
58955;BME280;45815;52.334;5.024;2023-04-07T00:27:58;101518.75;;;8.79;100.00
58955;BME280;45815;52.334;5.024;2023-04-07T00:30:23;101525.75;;;8.80;100.00
58955;BME280;45815;52.334;5.024;2023-04-07T00:32:49;101519.72;;;8.82;100.00
58955;BME280;45815;52.334;5.024;2023-04-07T00:35:16;101522.66;;;8.90;100.00
58955;BME280;45815;52.334;5.024;2023-04-07T00:37:41;101520.13;;;8.93;100.00
58955;BME280;45815;52.334;5.024;2023-04-07T00:40:07;101522.84;;;8.96;100.00
58955;BME280;45815;52.334;5.024;2023-04-07T00:42:33;101515.22;;;9.02;100.00
58955;BME280;45815;52.334;5.024;2023-04-07T00:44:59;101516.63;;;8.93;100.00
58955;BME280;45815;52.334;5.024;2023-04-07T00:47:24;101519.28;;;8.94;100.00
58955;BME280;45815;52.334;5.024;2023-04-07T00:49:50;101508.94;;;8.97;100.00
58955;BME280;45815;52.334;5.024;2023-04-07T00:52:16;101503.72;;;8.97;100.00
58955;BME280;45815;52.334;5.024;2023-04-07T00:54:43;101517.41;;;8.90;100.00
58955;BME280;45815;52.334;5.024;2023-04-07T00:57:11;101515.75;;;8.92;100.00
58955;BME280;45815;52.334;5.024;2023-04-07T00:59:37;101517.41;;;8.90;100.00
58955;BME280;45815;52.334;5.024;2023-04-07T01:02:04;101520.75;;;8.86;100.00
58955;BME280;45815;52.334;5.024;2023-04-07T01:05:17;101522.31;;;8.81;100.00
58955;BME280;45815;52.334;5.024;2023-04-07T01:07:26;101505.31;;;8.70;100.00
58955;BME280;45815;52.334;5.024;2023-04-07T01:10:10;101527.75;;;8.87;100.00
58955;BME280;45815;52.334;5.024;2023-04-07T01:12:58;101523.34;;;8.86;100.00
58955;BME280;45815;52.334;5.024;2023-04-07T01:15:29;101517.50;;;8.93;100.00
58955;BME280;45815;52.334;5.024;2023-04-07T01:18:09;101517.75;;;8.99;100.00
58955;BME280;45815;52.334;5.024;2023-04-07T01:20:37;101519.75;;;9.06;100.00
58955;BME280;45815;52.334;5.024;2023-04-07T01:23:06;101516.19;;;9.04;100.00
58955;BME280;45815;52.334;5.024;2023-04-07T01:26:05;101517.84;;;9.02;100.00
58955;BME280;45815;52.334;5.024;2023-04-07T01:31:11;101511.03;;;9.07;100.00
58955;BME280;45815;52.334;5.024;2023-04-07T01:33:37;101524.03;;;9.04;100.00
58955;BME280;45815;52.334;5.024;2023-04-07T01:36:05;101509.31;;;9.08;100.00
58955;BME280;45815;52.334;5.024;2023-04-07T01:38:32;101510.22;;;9.08;100.00
58955;BME280;45815;52.334;5.024;2023-04-07T01:40:59;101502.63;;;9.16;100.00
58955;BME280;45815;52.334;5.024;2023-04-07T01:43:26;101509.72;;;9.19;100.00
58955;BME280;45815;52.334;5.024;2023-04-07T01:45:53;101513.19;;;9.18;100.00
58955;BME280;45815;52.334;5.024;2023-04-07T01:48:21;101516.63;;;9.17;100.00
58955;BME280;45815;52.334;5.024;2023-04-07T01:50:48;101514.16;;;9.21;100.00
58955;BME280;45815;52.334;5.024;2023-04-07T01:53:14;101505.34;;;9.19;100.00
58955;BME280;45815;52.334;5.024;2023-04-07T01:55:41;101517.03;;;9.29;100.00
58955;BME280;45815;52.334;5.024;2023-04-07T01:58:08;101513.53;;;9.28;100.00
58955;BME280;45815;52.334;5.024;2023-04-07T02:00:36;101514.38;;;9.27;100.00
58955;BME280;45815;52.334;5.024;2023-04-07T02:03:11;101508.03;;;9.21;100.00
58955;BME280;45815;52.334;5.024;2023-04-07T02:05:45;101517.03;;;9.29;100.00
58955;BME280;45815;52.334;5.024;2023-04-07T02:08:13;101518.72;;;9.27;100.00
58955;BME280;45815;52.334;5.024;2023-04-07T02:10:40;101522.88;;;9.20;100.00
58955;BME280;45815;52.334;5.024;2023-04-07T02:13:09;101518.63;;;9.24;100.00
58955;BME280;45815;52.334;5.024;2023-04-07T02:15:38;101512.50;;;9.23;100.00
58955;BME280;45815;52.334;5.024;2023-04-07T02:18:05;101513.03;;;9.15;100.00
58955;BME280;45815;52.334;5.024;2023-04-07T02:20:34;101513.19;;;9.18;100.00
58955;BME280;45815;52.334;5.024;2023-04-07T02:23:01;101519.94;;;9.13;100.00
58955;BME280;45815;52.334;5.024;2023-04-07T02:25:29;101515.28;;;9.04;100.00
58955;BME280;45815;52.334;5.024;2023-04-07T02:27:56;101516.44;;;9.12;100.00
58955;BME280;45815;52.334;5.024;2023-04-07T02:30:22;101520.81;;;9.12;100.00
58955;BME280;45815;52.334;5.024;2023-04-07T02:32:47;101510.38;;;9.13;100.00
58955;BME280;45815;52.334;5.024;2023-04-07T02:35:14;101512.06;;;9.11;100.00
58955;BME280;45815;52.334;5.024;2023-04-07T02:37:40;101519.06;;;9.12;100.00
58955;BME280;45815;52.334;5.024;2023-04-07T02:40:06;101519.84;;;9.09;100.00
58955;BME280;45815;52.334;5.024;2023-04-07T02:42:31;101528.56;;;9.08;100.00
58955;BME280;45815;52.334;5.024;2023-04-07T02:44:57;101513.47;;;9.01;100.00
58955;BME280;45815;52.334;5.024;2023-04-07T02:47:22;101522.63;;;9.14;100.00
58955;BME280;45815;52.334;5.024;2023-04-07T02:49:48;101523.53;;;9.15;100.00
58955;BME280;45815;52.334;5.024;2023-04-07T02:52:13;101521.84;;;9.17;100.00
58955;BME280;45815;52.334;5.024;2023-04-07T02:54:39;101522.31;;;9.05;100.00
58955;BME280;45815;52.334;5.024;2023-04-07T02:57:05;101532.78;;;9.05;100.00
58955;BME280;45815;52.334;5.024;2023-04-07T02:59:30;101536.09;;;8.99;100.00
58955;BME280;45815;52.334;5.024;2023-04-07T03:01:56;101534.16;;;8.95;100.00
58955;BME280;45815;52.334;5.024;2023-04-07T03:04:22;101523.97;;;9.03;100.00
58955;BME280;45815;52.334;5.024;2023-04-07T03:06:47;101526.41;;;8.98;100.00
58955;BME280;45815;52.334;5.024;2023-04-07T03:09:14;101530.00;;;9.00;100.00
58955;BME280;45815;52.334;5.024;2023-04-07T03:11:39;101525.47;;;8.96;100.00
58955;BME280;45815;52.334;5.024;2023-04-07T03:14:06;101528.22;;;8.99;100.00
58955;BME280;45815;52.334;5.024;2023-04-07T03:16:34;101523.88;;;9.00;100.00
58955;BME280;45815;52.334;5.024;2023-04-07T03:19:07;101526.97;;;8.90;100.00
58955;BME280;45815;52.334;5.024;2023-04-07T03:21:37;101527.19;;;8.96;100.00
58955;BME280;45815;52.334;5.024;2023-04-07T03:24:04;101517.84;;;9.02;100.00
58955;BME280;45815;52.334;5.024;2023-04-07T03:26:30;101521.88;;;8.93;100.00
58955;BME280;45815;52.334;5.024;2023-04-07T03:28:56;101530.50;;;8.90;100.00
58955;BME280;45815;52.334;5.024;2023-04-07T03:31:21;101532.00;;;8.83;100.00
58955;BME280;45815;52.334;5.024;2023-04-07T03:33:50;101523.34;;;8.86;100.00
58955;BME280;45815;52.334;5.024;2023-04-07T03:36:16;101529.44;;;8.85;100.00
58955;BME280;45815;52.334;5.024;2023-04-07T03:38:46;101527.75;;;8.87;100.00
58955;BME280;45815;52.334;5.024;2023-04-07T03:41:12;101515.56;;;8.87;100.00
58955;BME280;45815;52.334;5.024;2023-04-07T03:43:38;101523.59;;;8.92;100.00
58955;BME280;45815;52.334;5.024;2023-04-07T03:46:03;101530.78;;;8.98;100.00
58955;BME280;45815;52.334;5.024;2023-04-07T03:48:29;101525.63;;;9.01;100.00
58955;BME280;45815;52.334;5.024;2023-04-07T03:51:05;101533.56;;;9.02;100.00
58955;BME280;45815;52.334;5.024;2023-04-07T03:53:31;101534.44;;;9.03;100.00
58955;BME280;45815;52.334;5.024;2023-04-07T03:55:58;101532.00;;;9.07;100.00
58955;BME280;45815;52.334;5.024;2023-04-07T03:58:39;101536.41;;;9.08;100.00
58955;BME280;45815;52.334;5.024;2023-04-07T04:01:10;101535.47;;;9.06;100.00
58955;BME280;45815;52.334;5.024;2023-04-07T04:03:36;101542.38;;;9.04;100.00
58955;BME280;45815;52.334;5.024;2023-04-07T04:06:17;101540.69;;;9.06;100.00
58955;BME280;45815;52.334;5.024;2023-04-07T04:08:42;101533.78;;;9.08;100.00
58955;BME280;45815;52.334;5.024;2023-04-07T04:11:08;101532.09;;;9.11;100.00
58955;BME280;45815;52.334;5.024;2023-04-07T04:13:41;101540.75;;;9.08;100.00
58955;BME280;45815;52.334;5.024;2023-04-07T04:16:07;101534.69;;;9.09;100.00
58955;BME280;45815;52.334;5.024;2023-04-07T04:18:33;101539.91;;;9.09;100.00
58955;BME280;45815;52.334;5.024;2023-04-07T04:20:59;101532.00;;;9.07;100.00
58955;BME280;45815;52.334;5.024;2023-04-07T04:23:25;101528.56;;;9.08;100.00
58955;BME280;45815;52.334;5.024;2023-04-07T04:25:53;101545.94;;;9.06;100.00
58955;BME280;45815;52.334;5.024;2023-04-07T04:28:18;101537.84;;;9.00;100.00
58955;BME280;45815;52.334;5.024;2023-04-07T04:30:44;101545.78;;;9.02;100.00
58955;BME280;45815;52.334;5.024;2023-04-07T04:33:09;101546.75;;;9.05;100.00
58955;BME280;45815;52.334;5.024;2023-04-07T04:35:53;101558.41;;;9.14;100.00
58955;BME280;45815;52.334;5.024;2023-04-07T04:38:19;101554.94;;;9.15;100.00
58955;BME280;45815;52.334;5.024;2023-04-07T04:40:52;101558.53;;;9.17;100.00
58955;BME280;45815;52.334;5.024;2023-04-07T04:43:23;101552.34;;;9.15;100.00
58955;BME280;45815;52.334;5.024;2023-04-07T04:45:49;101556.50;;;9.09;100.00
58955;BME280;45815;52.334;5.024;2023-04-07T04:48:17;101560.81;;;9.07;100.00
58955;BME280;45815;52.334;5.024;2023-04-07T04:50:42;101563.97;;;8.99;100.00
58955;BME280;45815;52.334;5.024;2023-04-07T04:53:10;101567.31;;;8.95;100.00
58955;BME280;45815;52.334;5.024;2023-04-07T04:55:43;101578.78;;;8.98;100.00
58955;BME280;45815;52.334;5.024;2023-04-07T04:58:13;101573.56;;;8.98;100.00
58955;BME280;45815;52.334;5.024;2023-04-07T05:00:45;101574.44;;;8.99;100.00
58955;BME280;45815;52.334;5.024;2023-04-07T05:03:11;101570.13;;;8.99;100.00
58955;BME280;45815;52.334;5.024;2023-04-07T05:05:39;101579.56;;;8.96;100.00
58955;BME280;45815;52.334;5.024;2023-04-07T05:08:09;101568.31;;;8.98;100.00
58955;BME280;45815;52.334;5.024;2023-04-07T05:10:39;101573.78;;;9.04;100.00
58955;BME280;45815;52.334;5.024;2023-04-07T05:13:08;101567.00;;;9.09;100.00
58955;BME280;45815;52.334;5.024;2023-04-07T05:15:35;101572.16;;;9.08;100.00
58955;BME280;45815;52.334;5.024;2023-04-07T05:18:01;101574.84;;;9.09;100.00
58955;BME280;45815;52.334;5.024;2023-04-07T05:20:27;101572.13;;;9.06;100.00
58955;BME280;45815;52.334;5.024;2023-04-07T05:22:53;101579.13;;;9.07;100.00
58955;BME280;45815;52.334;5.024;2023-04-07T05:25:22;101580.59;;;8.99;100.00
58955;BME280;45815;52.334;5.024;2023-04-07T05:27:51;101587.84;;;9.06;100.00
58955;BME280;45815;52.334;5.024;2023-04-07T05:30:17;101587.00;;;9.07;100.00
58955;BME280;45815;52.334;5.024;2023-04-07T05:32:43;101594.75;;;9.04;100.00
58955;BME280;45815;52.334;5.024;2023-04-07T05:35:17;101592.22;;;9.07;100.00
58955;BME280;45815;52.334;5.024;2023-04-07T05:37:49;101603.63;;;8.85;100.00
58955;BME280;45815;52.334;5.024;2023-04-07T05:40:15;101597.19;;;9.00;100.00
58955;BME280;45815;52.334;5.024;2023-04-07T05:42:40;101600.09;;;9.07;100.00
58955;BME280;45815;52.334;5.024;2023-04-07T05:45:07;101608.91;;;9.09;100.00
58955;BME280;45815;52.334;5.024;2023-04-07T05:47:36;101601.88;;;9.08;100.00
58955;BME280;45815;52.334;5.024;2023-04-07T05:50:02;101601.91;;;9.10;100.00
58955;BME280;45815;52.334;5.024;2023-04-07T05:52:29;101600.19;;;9.11;100.00
58955;BME280;45815;52.334;5.024;2023-04-07T05:55:06;101602.00;;;9.12;100.00
58955;BME280;45815;52.334;5.024;2023-04-07T05:57:31;101606.50;;;9.16;100.00
58955;BME280;45815;52.334;5.024;2023-04-07T05:59:59;101609.00;;;9.13;100.00
58955;BME280;45815;52.334;5.024;2023-04-07T06:02:25;101614.56;;;8.98;100.00
58955;BME280;45815;52.334;5.024;2023-04-07T06:04:51;101616.81;;;8.88;100.00
58955;BME280;45815;52.334;5.024;2023-04-07T06:07:18;101621.34;;;8.93;100.00
58955;BME280;45815;52.334;5.024;2023-04-07T06:09:43;101619.34;;;8.85;100.00
58955;BME280;45815;52.334;5.024;2023-04-07T06:12:09;101632.53;;;8.88;100.00
58955;BME280;45815;52.334;5.024;2023-04-07T06:14:37;101625.81;;;8.95;100.00
58955;BME280;45815;52.334;5.024;2023-04-07T06:17:02;101623.97;;;8.93;100.00
58955;BME280;45815;52.334;5.024;2023-04-07T06:19:28;101622.34;;;8.96;100.00
58955;BME280;45815;52.334;5.024;2023-04-07T06:21:53;101627.75;;;9.01;100.00
58955;BME280;45815;52.334;5.024;2023-04-07T06:24:19;101633.31;;;9.08;100.00
58955;BME280;45815;52.334;5.024;2023-04-07T06:26:47;101636.13;;;9.15;100.00
58955;BME280;45815;52.334;5.024;2023-04-07T06:29:13;101618.59;;;9.12;100.00
58955;BME280;45815;52.334;5.024;2023-04-07T06:31:39;101641.34;;;9.13;100.00
58955;BME280;45815;52.334;5.024;2023-04-07T06:34:05;101640.59;;;9.17;100.00
58955;BME280;45815;52.334;5.024;2023-04-07T06:36:30;101629.94;;;9.13;100.00
58955;BME280;45815;52.334;5.024;2023-04-07T06:38:57;101638.91;;;9.18;100.00
58955;BME280;45815;52.334;5.024;2023-04-07T06:41:22;101644.34;;;9.24;100.00
58955;BME280;45815;52.334;5.024;2023-04-07T06:43:49;101649.47;;;9.21;100.00
58955;BME280;45815;52.334;5.024;2023-04-07T06:46:18;101635.34;;;9.17;100.00
58955;BME280;45815;52.334;5.024;2023-04-07T06:48:44;101644.66;;;9.09;100.00
58955;BME280;45815;52.334;5.024;2023-04-07T06:51:09;101646.63;;;9.15;100.00
58955;BME280;45815;52.334;5.024;2023-04-07T06:53:35;101648.34;;;9.14;100.00
58955;BME280;45815;52.334;5.024;2023-04-07T06:56:05;101650.38;;;9.21;100.00
58955;BME280;45815;52.334;5.024;2023-04-07T06:58:31;101657.22;;;9.18;100.00
58955;BME280;45815;52.334;5.024;2023-04-07T07:00:56;101659.28;;;9.26;100.00
58955;BME280;45815;52.334;5.024;2023-04-07T07:03:21;101664.84;;;9.34;100.00
58955;BME280;45815;52.334;5.024;2023-04-07T07:05:47;101669.47;;;9.41;100.00
58955;BME280;45815;52.334;5.024;2023-04-07T07:08:12;101665.47;;;9.52;100.00
58955;BME280;45815;52.334;5.024;2023-04-07T07:10:37;101669.22;;;9.59;100.00
58955;BME280;45815;52.334;5.024;2023-04-07T07:13:03;101665.63;;;9.56;100.00
58955;BME280;45815;52.334;5.024;2023-04-07T07:15:28;101665.72;;;9.59;100.00
58955;BME280;45815;52.334;5.024;2023-04-07T07:17:53;101670.97;;;9.59;100.00
58955;BME280;45815;52.334;5.024;2023-04-07T07:20:19;101665.31;;;9.48;100.00
58955;BME280;45815;52.334;5.024;2023-04-07T07:22:44;101670.69;;;9.51;100.00
58955;BME280;45815;52.334;5.024;2023-04-07T07:25:10;101668.84;;;9.48;100.00
58955;BME280;45815;52.334;5.024;2023-04-07T07:27:35;101668.00;;;9.49;100.00
58955;BME280;45815;52.334;5.024;2023-04-07T07:30:00;101675.25;;;9.57;100.00
58955;BME280;45815;52.334;5.024;2023-04-07T07:32:26;101674.44;;;9.58;100.00
58955;BME280;45815;52.334;5.024;2023-04-07T07:34:51;101683.97;;;9.56;100.00
58955;BME280;45815;52.334;5.024;2023-04-07T07:37:17;101683.00;;;9.54;100.00
58955;BME280;45815;52.334;5.024;2023-04-07T07:39:42;101678.25;;;9.43;100.00
58955;BME280;45815;52.334;5.024;2023-04-07T07:42:07;101682.66;;;9.44;100.00
58955;BME280;45815;52.334;5.024;2023-04-07T07:44:33;101683.44;;;9.42;100.00
58955;BME280;45815;52.334;5.024;2023-04-07T07:46:58;101690.28;;;9.38;100.00
58955;BME280;45815;52.334;5.024;2023-04-07T07:49:23;101687.06;;;9.45;100.00
58955;BME280;45815;52.334;5.024;2023-04-07T07:51:49;101699.44;;;9.49;100.00
58955;BME280;45815;52.334;5.024;2023-04-07T07:54:14;101704.69;;;9.49;100.00
58955;BME280;45815;52.334;5.024;2023-04-07T07:56:40;101700.16;;;9.45;100.00
58955;BME280;45815;52.334;5.024;2023-04-07T07:59:05;101698.56;;;9.49;100.00
58955;BME280;45815;52.334;5.024;2023-04-07T08:01:31;101703.13;;;9.55;100.00
58955;BME280;45815;52.334;5.024;2023-04-07T08:03:56;101708.16;;;9.48;100.00
58955;BME280;45815;52.334;5.024;2023-04-07T08:06:22;101710.16;;;9.56;100.00
58955;BME280;45815;52.334;5.024;2023-04-07T08:08:47;101709.41;;;9.60;100.00
58955;BME280;45815;52.334;5.024;2023-04-07T08:11:13;101717.19;;;9.57;100.00
58955;BME280;45815;52.334;5.024;2023-04-07T08:13:38;101709.25;;;9.55;100.00
58955;BME280;45815;52.334;5.024;2023-04-07T08:16:04;101713.91;;;9.62;100.00
58955;BME280;45815;52.334;5.024;2023-04-07T08:18:31;101714.09;;;9.67;100.00
58955;BME280;45815;52.334;5.024;2023-04-07T08:20:56;101719.78;;;9.79;100.00
58955;BME280;45815;52.334;5.024;2023-04-07T08:23:22;101719.16;;;9.86;100.00
58955;BME280;45815;52.334;5.024;2023-04-07T08:25:47;101719.19;;;9.88;100.00
58955;BME280;45815;52.334;5.024;2023-04-07T08:28:12;101722.81;;;9.91;100.00
58955;BME280;45815;52.334;5.024;2023-04-07T08:30:38;101724.09;;;10.03;100.00
58955;BME280;45815;52.334;5.024;2023-04-07T08:33:04;101725.44;;;9.91;100.00
58955;BME280;45815;52.334;5.024;2023-04-07T08:35:30;101731.31;;;9.84;100.00
58955;BME280;45815;52.334;5.024;2023-04-07T08:37:55;101732.47;;;9.92;100.00
58955;BME280;45815;52.334;5.024;2023-04-07T08:40:21;101730.34;;;10.06;100.00
58955;BME280;45815;52.334;5.024;2023-04-07T08:42:47;101718.84;;;10.03;100.00
58955;BME280;45815;52.334;5.024;2023-04-07T08:45:15;101735.09;;;10.17;100.00
58955;BME280;45815;52.334;5.024;2023-04-07T08:47:41;101731.44;;;10.13;100.00
58955;BME280;45815;52.334;5.024;2023-04-07T08:50:09;101734.19;;;10.16;100.00
58955;BME280;45815;52.334;5.024;2023-04-07T08:55:03;101723.31;;;10.29;100.00
58955;BME280;45815;52.334;5.024;2023-04-07T08:57:31;101739.72;;;10.25;100.00
58955;BME280;45815;52.334;5.024;2023-04-07T09:00:00;101744.94;;;10.24;100.00
58955;BME280;45815;52.334;5.024;2023-04-07T09:02:33;101731.03;;;10.26;100.00
58955;BME280;45815;52.334;5.024;2023-04-07T09:05:00;101742.22;;;10.45;100.00
58955;BME280;45815;52.334;5.024;2023-04-07T09:07:27;101741.47;;;10.49;100.00
58955;BME280;45815;52.334;5.024;2023-04-07T09:09:54;101744.88;;;10.46;100.00
58955;BME280;45815;52.334;5.024;2023-04-07T09:12:19;101746.50;;;10.43;100.00
58955;BME280;45815;52.334;5.024;2023-04-07T09:14:45;101744.84;;;10.45;100.00
58955;BME280;45815;52.334;5.024;2023-04-07T09:17:10;101750.19;;;10.48;100.00
58955;BME280;45815;52.334;5.024;2023-04-07T09:19:35;101752.09;;;10.53;100.00
58955;BME280;45815;52.334;5.024;2023-04-07T09:22:01;101757.47;;;10.56;100.00
58955;BME280;45815;52.334;5.024;2023-04-07T09:24:28;101752.16;;;10.55;100.00
58955;BME280;45815;52.334;5.024;2023-04-07T09:27:13;101758.91;;;10.47;100.00
58955;BME280;45815;52.334;5.024;2023-04-07T09:29:40;101761.00;;;10.57;100.00
58955;BME280;45815;52.334;5.024;2023-04-07T09:32:07;101761.22;;;10.63;100.00
58955;BME280;45815;52.334;5.024;2023-04-07T09:34:37;101759.53;;;10.65;100.00
58955;BME280;45815;52.334;5.024;2023-04-07T09:37:04;101756.78;;;10.62;100.00
58955;BME280;45815;52.334;5.024;2023-04-07T09:39:30;101761.09;;;10.60;100.00
58955;BME280;45815;52.334;5.024;2023-04-07T09:41:56;101760.25;;;10.61;100.00
58955;BME280;45815;52.334;5.024;2023-04-07T09:44:22;101759.41;;;10.62;100.00
58955;BME280;45815;52.334;5.024;2023-04-07T09:46:56;101764.00;;;10.68;100.00
58955;BME280;45815;52.334;5.024;2023-04-07T09:49:23;101764.66;;;10.62;100.00
58955;BME280;45815;52.334;5.024;2023-04-07T09:52:00;101762.00;;;10.61;100.00
58955;BME280;45815;52.334;5.024;2023-04-07T09:54:36;101770.13;;;10.68;100.00
58955;BME280;45815;52.334;5.024;2023-04-07T09:57:06;101772.84;;;10.71;100.00
58955;BME280;45815;52.334;5.024;2023-04-07T09:59:33;101770.03;;;10.65;100.00
58955;BME280;45815;52.334;5.024;2023-04-07T10:02:00;101767.34;;;10.64;100.00
58955;BME280;45815;52.334;5.024;2023-04-07T10:04:26;101771.09;;;10.72;100.00
58955;BME280;45815;52.334;5.024;2023-04-07T10:06:52;101770.13;;;10.68;100.00
58955;BME280;45815;52.334;5.024;2023-04-07T10:09:19;101774.00;;;10.80;100.00
58955;BME280;45815;52.334;5.024;2023-04-07T10:11:45;101766.94;;;10.78;100.00
58955;BME280;45815;52.334;5.024;2023-04-07T10:14:11;101768.53;;;10.73;100.00
58955;BME280;45815;52.334;5.024;2023-04-07T10:16:37;101764.78;;;10.65;100.00
58955;BME280;45815;52.334;5.024;2023-04-07T10:19:05;101776.25;;;10.69;100.00
58955;BME280;45815;52.334;5.024;2023-04-07T10:21:33;101768.31;;;10.67;100.00
58955;BME280;45815;52.334;5.024;2023-04-07T10:26:57;101783.66;;;10.81;100.00
58955;BME280;45815;52.334;5.024;2023-04-07T10:29:24;101780.63;;;10.95;100.00
58955;BME280;45815;52.334;5.024;2023-04-07T10:31:51;101781.63;;;10.99;100.00
58955;BME280;45815;52.334;5.024;2023-04-07T10:37:15;101799.00;;;10.94;100.00
58955;BME280;45815;52.334;5.024;2023-04-07T10:39:44;101800.44;;;10.84;100.00
58955;BME280;45815;52.334;5.024;2023-04-07T10:45:04;101803.34;;;10.93;100.00
58955;BME280;45815;52.334;5.024;2023-04-07T10:47:29;101806.22;;;11.01;100.00
58955;BME280;45815;52.334;5.024;2023-04-07T10:50:15;101808.75;;;10.98;100.00
58955;BME280;45815;52.334;5.024;2023-04-07T10:52:42;101802.78;;;10.76;100.00
58955;BME280;45815;52.334;5.024;2023-04-07T10:55:27;101807.78;;;10.69;100.00
58955;BME280;45815;52.334;5.024;2023-04-07T10:58:13;101810.94;;;10.59;100.00
58955;BME280;45815;52.334;5.024;2023-04-07T11:00:39;101806.88;;;10.68;100.00
58955;BME280;45815;52.334;5.024;2023-04-07T11:03:12;101808.78;;;10.72;100.00
58955;BME280;45815;52.334;5.024;2023-04-07T11:05:41;101809.28;;;10.88;100.00
58955;BME280;45815;52.334;5.024;2023-04-07T11:08:07;101803.50;;;10.98;100.00
58955;BME280;45815;52.334;5.024;2023-04-07T11:10:35;101809.22;;;10.86;100.00
58955;BME280;45815;52.334;5.024;2023-04-07T11:13:03;101816.38;;;10.90;100.00
58955;BME280;45815;52.334;5.024;2023-04-07T11:15:29;101816.34;;;10.89;100.00
58955;BME280;45815;52.334;5.024;2023-04-07T11:18:15;101818.34;;;10.97;100.00
58955;BME280;45815;52.334;5.024;2023-04-07T11:20:49;101811.88;;;11.13;100.00
58955;BME280;45815;52.334;5.024;2023-04-07T11:23:16;101806.13;;;11.25;100.00
58955;BME280;45815;52.334;5.024;2023-04-07T11:25:43;101809.63;;;11.26;100.00
58955;BME280;45815;52.334;5.024;2023-04-07T11:28:10;101815.53;;;11.46;100.00
58955;BME280;45815;52.334;5.024;2023-04-07T11:30:44;101819.25;;;11.54;100.00
58955;BME280;45815;52.334;5.024;2023-04-07T11:33:14;101810.44;;;11.52;100.00
58955;BME280;45815;52.334;5.024;2023-04-07T11:35:50;101817.56;;;11.54;100.00
58955;BME280;45815;52.334;5.024;2023-04-07T11:38:17;101825.16;;;11.45;100.00
58955;BME280;45815;52.334;5.024;2023-04-07T11:40:42;101816.91;;;11.34;100.00
58955;BME280;45815;52.334;5.024;2023-04-07T11:43:16;101831.97;;;11.40;100.00
58955;BME280;45815;52.334;5.024;2023-04-07T11:45:42;101826.47;;;11.31;100.00
58955;BME280;45815;52.334;5.024;2023-04-07T11:48:28;101821.91;;;10.98;100.00
58955;BME280;45815;52.334;5.024;2023-04-07T11:50:54;101833.38;;;11.02;100.00
58955;BME280;45815;52.334;5.024;2023-04-07T11:53:30;101831.63;;;11.01;100.00
58955;BME280;45815;52.334;5.024;2023-04-07T11:56:06;101841.44;;;10.81;100.00
58955;BME280;45815;52.334;5.024;2023-04-07T11:58:37;101844.16;;;10.84;100.00
58955;BME280;45815;52.334;5.024;2023-04-07T12:01:05;101850.63;;;10.93;100.00
58955;BME280;45815;52.334;5.024;2023-04-07T12:03:35;101845.53;;;10.98;100.00
58955;BME280;45815;52.334;5.024;2023-04-07T12:06:04;101852.72;;;11.04;100.00
58955;BME280;45815;52.334;5.024;2023-04-07T12:08:42;101853.59;;;11.04;100.00
58955;BME280;45815;52.334;5.024;2023-04-07T12:11:09;101849.59;;;11.15;100.00
58955;BME280;45815;52.334;5.024;2023-04-07T12:13:35;101855.13;;;10.97;100.00
58955;BME280;45815;52.334;5.024;2023-04-07T12:16:01;101861.72;;;11.12;100.00
58955;BME280;45815;52.334;5.024;2023-04-07T12:18:27;101859.47;;;11.23;100.00
58955;BME280;45815;52.334;5.024;2023-04-07T12:20:54;101854.16;;;11.21;100.00
58955;BME280;45815;52.334;5.024;2023-04-07T12:23:21;101843.66;;;11.21;100.00
58955;BME280;45815;52.334;5.024;2023-04-07T12:25:47;101862.16;;;11.24;100.00
58955;BME280;45815;52.334;5.024;2023-04-07T12:28:13;101861.16;;;11.20;100.00
58955;BME280;45815;52.334;5.024;2023-04-07T12:30:38;101868.22;;;11.22;100.00
58955;BME280;45815;52.334;5.024;2023-04-07T12:33:04;101861.38;;;11.27;100.00
58955;BME280;45815;52.334;5.024;2023-04-07T12:35:30;101867.50;;;11.27;100.00
58955;BME280;45815;52.334;5.024;2023-04-07T12:37:56;101859.81;;;11.06;100.00
58955;BME280;45815;52.334;5.024;2023-04-07T12:40:22;101873.19;;;11.14;100.00
58955;BME280;45815;52.334;5.024;2023-04-07T12:42:48;101867.59;;;11.03;100.00
58955;BME280;45815;52.334;5.024;2023-04-07T12:45:13;101872.47;;;11.18;100.00
58955;BME280;45815;52.334;5.024;2023-04-07T12:47:38;101870.94;;;11.25;100.00
58955;BME280;45815;52.334;5.024;2023-04-07T12:50:05;101872.56;;;11.21;100.00
58955;BME280;45815;52.334;5.024;2023-04-07T12:52:30;101881.69;;;11.05;100.00
58955;BME280;45815;52.334;5.024;2023-04-07T12:54:57;101882.81;;;11.13;100.00
58955;BME280;45815;52.334;5.024;2023-04-07T12:57:23;101883.66;;;11.12;100.00
58955;BME280;45815;52.334;5.024;2023-04-07T12:59:48;101885.44;;;11.13;100.00
58955;BME280;45815;52.334;5.024;2023-04-07T13:02:14;101888.72;;;11.06;100.00
58955;BME280;45815;52.334;5.024;2023-04-07T13:04:42;101889.88;;;11.14;100.00